Portada
METAR-TAF:

METAR-TAF

Aeropuertos :

Wonderboom Airport

Pretoria, Sudáfrica

latitud: 25-39S, longitud: 028-13E, altitud: 1248 m

Observación

El informe se hizo hace 14 minutos, a las 15:00 UTC
Viento 4 kt del noroeste
Temperatura 29°C
Humedad 33%
Presión 1019 hPa

METAR: FAWB 231500Z AUTO 31004KT //// // ////// 29/11 Q1019

Hora: 17:14 (15:14 UTC)

Pronóstico

El informe se hizo hace 6 horas y 14 minutos, a las 09:00 UTC
Pronóstico válido del 23 a las 10 UTC al 23 a las 18 UTC
Viento 3 kt con dirección variable
Visibilidad 10 km o más
sin nubes por debajo de 1500 m y sin presencia de cumulonimbus.

TAF: FAWB 230900Z 2310/2318 VRB03KT CAVOK TX31/2313Z TN25/2318Z

Observaciones y pronósticos meteorológicos de más de 4000 aeropuertos (mensajes METAR y TAF).

Los puntos amarillos y rojos representan las estaciones disponibles.

Ponga el ratón en el punto deseado para ver el nombre de la estación.

Haga clic para ver las observaciones y los pronósticos meteorológicos.

Para cambiar el mapa : haga clic en los botones verdes con una cruz de color negro para hacer un zoom, en el botón verde con un guión para alejar o en las flechas verdes para mapas adyacentes.


METAR-TAF: